createdAt,value
2022-09-20T00:01:11.621Z,99816.31
2022-09-20T00:03:42.185Z,99818.13
2022-09-20T00:06:16.029Z,99824.19
2022-09-20T00:08:44.053Z,99829.41
2022-09-20T00:11:18.435Z,99828.94
2022-09-20T00:13:47.869Z,99823.69
2022-09-20T00:16:18.539Z,99815.66
2022-09-20T00:18:50.477Z,99821.72
2022-09-20T00:21:22.015Z,99819.03
2022-09-20T00:23:49.611Z,99823.44
2022-09-20T00:26:17.570Z,99814.78
2022-09-20T00:28:46.965Z,99825.25
2022-09-20T00:31:15.358Z,99820.88
2022-09-20T00:34:01.358Z,99819.16
2022-09-20T00:36:29.266Z,99819.22
2022-09-20T00:38:57.780Z,99811.31
2022-09-20T00:41:25.454Z,99809.66
2022-09-20T00:43:53.375Z,99813.94
2022-09-20T00:46:42.582Z,99812.94
2022-09-20T00:49:19.363Z,99817.34
2022-09-20T00:51:51.260Z,99815.59
2022-09-20T00:54:20.722Z,99820.91
2022-09-20T00:56:48.677Z,99820.00
2022-09-20T00:59:20.111Z,99819.13
2022-09-20T01:01:53.069Z,99827.03
2022-09-20T01:04:23.342Z,99826.22
2022-09-20T01:06:54.475Z,99827.97
2022-09-20T01:09:21.798Z,99835.84
2022-09-20T01:11:50.729Z,99836.62
2022-09-20T01:14:22.711Z,99838.25
2022-09-20T01:16:51.945Z,99837.41
2022-09-20T01:19:33.919Z,99840.91
2022-09-20T01:22:04.804Z,99843.69
2022-09-20T01:24:41.021Z,99828.81
2022-09-20T01:27:32.275Z,99837.47
2022-09-20T01:30:08.077Z,99833.97
2022-09-20T01:32:44.440Z,99840.09
2022-09-20T01:35:12.282Z,99840.09
2022-09-20T01:38:04.700Z,99829.59
2022-09-20T01:40:38.560Z,99836.62
2022-09-20T01:43:27.402Z,99852.34
2022-09-20T01:45:55.022Z,99848.97
2022-09-20T01:48:36.965Z,99859.25
2022-09-20T01:51:22.763Z,99841.94
2022-09-20T01:54:22.055Z,99854.09
2022-09-20T01:57:11.477Z,99847.22
2022-09-20T02:00:11.972Z,99857.38
2022-09-20T02:02:51.918Z,99862.59
2022-09-20T02:05:28.415Z,99855.69
2022-09-20T02:07:58.898Z,99861.59
2022-09-20T02:10:46.482Z,99853.81
2022-09-20T02:13:30.665Z,99859.78
2022-09-20T02:16:28.645Z,99861.44
2022-09-20T02:19:07.147Z,99867.59
2022-09-20T02:22:12.447Z,99868.59
2022-09-20T02:24:45.658Z,99867.66
2022-09-20T02:27:34.181Z,99867.56
2022-09-20T02:30:24.944Z,99872.81
2022-09-20T02:33:23.839Z,99872.00
2022-09-20T02:36:08.043Z,99868.56
2022-09-20T02:38:59.878Z,99876.38
2022-09-20T02:41:30.102Z,99867.75
2022-09-20T02:44:18.927Z,99866.88
2022-09-20T02:46:56.367Z,99869.47
2022-09-20T02:49:36.472Z,99866.75
2022-09-20T02:52:25.147Z,99866.91
2022-09-20T02:55:16.806Z,99876.56
2022-09-20T02:58:21.728Z,99879.16
2022-09-20T03:01:14.216Z,99882.62
2022-09-20T03:03:54.426Z,99888.63
2022-09-20T03:06:28.932Z,99892.22
2022-09-20T03:10:04.424Z,99892.25
2022-09-20T03:13:06.031Z,99894.84
2022-09-20T03:15:51.977Z,99897.38
2022-09-20T03:18:26.693Z,99892.25
2022-09-20T03:21:19.838Z,99887.94
2022-09-20T03:24:02.902Z,99886.13
2022-09-20T03:26:56.769Z,99884.34
2022-09-20T03:29:33.411Z,99889.53
2022-09-20T03:32:25.236Z,99883.44
2022-09-20T03:35:20.794Z,99884.34
2022-09-20T03:37:47.951Z,99886.91
2022-09-20T03:40:37.356Z,99881.72
2022-09-20T03:43:33.249Z,99886.22
2022-09-20T03:46:18.415Z,99890.66
2022-09-20T03:49:13.330Z,99883.62
2022-09-20T03:52:05.794Z,99882.09
2022-09-20T03:55:04.093Z,99880.34
2022-09-20T03:57:46.841Z,99882.16
2022-09-20T04:00:45.837Z,99881.31
2022-09-20T04:03:34.864Z,99877.00
2022-09-20T04:06:24.390Z,99876.94
2022-09-20T04:09:25.472Z,99877.03
2022-09-20T04:12:20.988Z,99874.47
2022-09-20T04:15:02.981Z,99883.19
2022-09-20T04:17:46.680Z,99891.09
2022-09-20T04:20:25.750Z,99896.25
2022-09-20T04:22:54.487Z,99899.78
2022-09-20T04:25:28.331Z,99899.78
2022-09-20T04:28:00.171Z,99898.97
2022-09-20T04:30:32.097Z,99900.69
2022-09-20T04:33:20.427Z,99900.03
2022-09-20T04:36:29.058Z,99893.13
2022-09-20T04:39:14.466Z,99889.66
2022-09-20T04:42:20.230Z,99896.56
2022-09-20T04:45:14.254Z,99896.47
2022-09-20T04:47:51.037Z,99898.28
2022-09-20T04:50:52.331Z,99897.44
2022-09-20T04:53:43.604Z,99908.66
2022-09-20T04:56:22.195Z,99903.38
2022-09-20T04:59:05.944Z,99903.31
2022-09-20T05:01:42.437Z,99905.00
2022-09-20T05:04:48.945Z,99910.22
2022-09-20T05:07:22.250Z,99918.00
2022-09-20T05:10:08.667Z,99911.09
2022-09-20T05:12:54.581Z,99912.91
2022-09-20T05:15:36.243Z,99909.31
2022-09-20T05:18:34.634Z,99916.34
2022-09-20T05:21:10.891Z,99918.06
2022-09-20T05:24:00.847Z,99927.50
2022-09-20T05:26:51.781Z,99933.63
2022-09-20T05:29:21.971Z,99936.25
2022-09-20T05:32:42.154Z,99928.28
2022-09-20T05:35:43.402Z,99934.31
2022-09-20T05:38:16.899Z,99942.97
2022-09-20T05:41:08.648Z,99938.38
2022-09-20T05:43:47.499Z,99937.38
2022-09-20T05:46:16.281Z,99942.41
2022-09-20T05:49:26.395Z,99937.31
2022-09-20T05:52:06.553Z,99939.81
2022-09-20T05:54:47.404Z,99934.59
2022-09-20T05:57:56.552Z,99938.63
2022-09-20T06:00:29.001Z,99936.62
2022-09-20T06:03:04.461Z,99938.91
2022-09-20T06:06:04.083Z,99943.94
2022-09-20T06:08:52.951Z,99941.06
2022-09-20T06:12:12.562Z,99943.47
2022-09-20T06:14:46.625Z,99951.47
2022-09-20T06:17:31.124Z,99944.91
2022-09-20T06:20:15.695Z,99948.00
2022-09-20T06:22:49.777Z,99954.03
2022-09-20T06:25:41.154Z,99950.22
2022-09-20T06:28:15.450Z,99949.50
2022-09-20T06:30:50.866Z,99952.19
2022-09-20T06:33:20.562Z,99955.25
2022-09-20T06:35:58.178Z,99951.62
2022-09-20T06:39:09.864Z,99951.62
2022-09-20T06:41:37.699Z,99958.44
2022-09-20T06:44:06.277Z,99954.59
2022-09-20T06:46:36.066Z,99954.13
2022-09-20T06:49:04.572Z,99952.56
2022-09-20T06:51:39.413Z,99948.16
2022-09-20T06:54:11.343Z,99951.00
2022-09-20T06:56:38.795Z,99954.03
2022-09-20T06:59:11.363Z,99954.00
2022-09-20T07:01:39.183Z,99951.72
2022-09-20T07:04:06.521Z,99952.81
2022-09-20T07:06:33.823Z,99954.94
2022-09-20T07:09:01.672Z,99952.69
2022-09-20T07:11:29.818Z,99962.91
2022-09-20T07:13:58.223Z,99960.22
2022-09-20T07:16:26.420Z,99956.47
2022-09-20T07:18:53.818Z,99962.66
2022-09-20T07:21:21.493Z,99965.63
2022-09-20T07:24:14.153Z,99960.97
2022-09-20T07:26:55.346Z,99965.41
2022-09-20T07:29:23.010Z,99965.56
2022-09-20T07:31:50.811Z,99974.22
2022-09-20T07:34:20.312Z,99982.06
2022-09-20T07:36:48.552Z,99985.94
2022-09-20T07:39:16.556Z,99985.19
2022-09-20T07:41:48.582Z,99982.91
2022-09-20T07:44:24.853Z,99990.31
2022-09-20T07:46:52.958Z,99987.47
2022-09-20T07:49:21.852Z,99986.75
2022-09-20T07:51:53.111Z,99988.91
2022-09-20T07:54:21.179Z,99985.53
2022-09-20T07:56:48.497Z,99983.97
2022-09-20T07:59:16.077Z,99989.69
2022-09-20T08:01:43.900Z,99990.19
2022-09-20T08:04:11.870Z,99982.47
2022-09-20T08:06:40.814Z,99985.56
2022-09-20T08:09:11.087Z,99978.56
2022-09-20T08:11:40.488Z,99989.06
2022-09-20T08:14:09.063Z,99987.47
2022-09-20T08:16:42.790Z,99995.69
2022-09-20T08:19:18.473Z,99991.13
2022-09-20T08:21:46.059Z,99985.87
2022-09-20T08:24:13.782Z,99991.75
2022-09-20T08:26:41.526Z,99991.06
2022-09-20T08:29:08.855Z,99986.25
2022-09-20T08:31:38.656Z,99992.00
2022-09-20T08:34:08.681Z,99991.84
2022-09-20T08:36:41.113Z,99985.63
2022-09-20T08:42:13.433Z,99991.59
2022-09-20T08:45:00.022Z,99992.72
2022-09-20T08:47:35.697Z,100003.28
2022-09-20T08:50:11.425Z,99999.63
2022-09-20T08:52:40.566Z,99999.41
2022-09-20T08:55:18.397Z,100004.09
2022-09-20T08:57:49.525Z,100006.19
2022-09-20T09:00:19.763Z,100004.62
2022-09-20T09:02:50.992Z,100006.03
2022-09-20T09:05:43.586Z,100000.78
2022-09-20T09:08:16.387Z,99999.63
2022-09-20T09:10:52.508Z,100001.62
2022-09-20T09:13:52.961Z,99998.97
2022-09-20T09:16:30.157Z,99997.66
2022-09-20T09:19:33.614Z,99994.91
2022-09-20T09:22:03.848Z,99991.25
2022-09-20T09:24:31.631Z,99990.59
2022-09-20T09:27:16.502Z,99990.47
2022-09-20T09:29:54.911Z,99981.31
2022-09-20T09:32:29.128Z,99973.41
2022-09-20T09:34:57.603Z,99983.66
2022-09-20T09:37:29.152Z,99984.25
2022-09-20T09:40:06.035Z,99983.59
2022-09-20T09:42:33.554Z,99987.03
2022-09-20T09:45:12.149Z,99992.78
2022-09-20T09:47:39.451Z,99989.31
2022-09-20T09:50:10.683Z,99984.56
2022-09-20T09:52:37.981Z,99987.53
2022-09-20T09:55:06.178Z,99982.34
2022-09-20T09:58:00.198Z,99974.00
2022-09-20T10:00:29.219Z,99977.84
2022-09-20T10:03:07.496Z,99968.31
2022-09-20T10:05:46.536Z,99969.28
2022-09-20T10:08:23.276Z,99969.50
2022-09-20T10:11:10.150Z,99978.44
2022-09-20T10:13:56.113Z,99971.78
2022-09-20T10:16:45.336Z,99975.63
2022-09-20T10:19:32.775Z,99981.53
2022-09-20T10:22:12.431Z,99981.81
2022-09-20T10:25:02.969Z,99977.47
2022-09-20T10:28:05.648Z,99983.94
2022-09-20T10:31:12.610Z,99972.09
2022-09-20T10:34:17.929Z,99977.81
2022-09-20T10:36:57.492Z,99965.94
2022-09-20T10:39:38.616Z,99961.06
2022-09-20T10:42:28.148Z,99960.00
2022-09-20T10:45:03.739Z,99948.91
2022-09-20T10:47:35.424Z,99941.44
2022-09-20T10:50:18.025Z,99953.38
2022-09-20T10:53:05.982Z,99942.13
2022-09-20T10:55:48.708Z,99950.00
2022-09-20T10:58:40.671Z,99960.94
2022-09-20T11:01:34.612Z,99963.75
2022-09-20T11:04:31.014Z,99971.41
2022-09-20T11:07:44.713Z,99973.34
2022-09-20T11:10:20.715Z,99972.81
2022-09-20T11:12:51.978Z,99977.72
2022-09-20T11:15:37.891Z,99979.88
2022-09-20T11:18:23.125Z,99984.31
2022-09-20T11:20:57.667Z,99971.13
2022-09-20T11:23:32.415Z,99973.88
2022-09-20T11:26:19.474Z,99967.41
2022-09-20T11:28:49.948Z,99970.66
2022-09-20T11:31:31.725Z,99962.91
2022-09-20T11:34:23.030Z,99964.72
2022-09-20T11:36:57.509Z,99956.28
2022-09-20T11:39:36.969Z,99950.34
2022-09-20T11:42:05.441Z,99951.09
2022-09-20T11:44:33.212Z,99938.00
2022-09-20T11:47:06.630Z,99941.66
2022-09-20T11:49:56.134Z,99944.72
2022-09-20T11:52:30.182Z,99941.44
2022-09-20T11:55:18.912Z,99946.44
2022-09-20T11:57:46.866Z,99931.38
2022-09-20T12:00:15.033Z,99936.16
2022-09-20T12:02:51.786Z,99925.91
2022-09-20T12:05:39.704Z,99929.38
2022-09-20T12:08:25.767Z,99930.44
2022-09-20T12:11:05.411Z,99929.97
2022-09-20T12:13:36.459Z,99924.59
2022-09-20T12:16:16.790Z,99925.87
2022-09-20T12:19:02.200Z,99920.47
2022-09-20T12:21:29.491Z,99921.56
2022-09-20T12:23:56.921Z,99924.81
2022-09-20T12:26:27.116Z,99914.66
2022-09-20T12:28:59.376Z,99918.72
2022-09-20T12:31:30.990Z,99919.44
2022-09-20T12:33:59.201Z,99918.94
2022-09-20T12:36:28.798Z,99914.72
2022-09-20T12:39:05.497Z,99918.66
2022-09-20T12:41:54.878Z,99919.09
2022-09-20T12:44:37.197Z,99910.97
2022-09-20T12:47:08.429Z,99916.81
2022-09-20T12:50:06.515Z,99917.19
2022-09-20T12:52:58.886Z,99923.25
2022-09-20T12:55:52.859Z,99924.75
2022-09-20T12:58:45.081Z,99930.34
2022-09-20T13:01:14.638Z,99926.00
2022-09-20T13:03:50.296Z,99924.31
2022-09-20T13:06:19.131Z,99919.13
2022-09-20T13:09:04.442Z,99914.41
2022-09-20T13:11:53.455Z,99918.53
2022-09-20T13:14:23.584Z,99911.72
2022-09-20T13:17:01.108Z,99918.81
2022-09-20T13:19:51.218Z,99906.84
2022-09-20T13:22:36.965Z,99920.47
2022-09-20T13:25:06.505Z,99922.09
2022-09-20T13:27:36.279Z,99914.31
2022-09-20T13:30:17.542Z,99919.56
2022-09-20T13:32:56.880Z,99918.84
2022-09-20T13:35:40.162Z,99914.69
2022-09-20T13:38:09.496Z,99919.66
2022-09-20T13:40:44.750Z,99903.69
2022-09-20T13:43:24.099Z,99903.34
2022-09-20T13:45:56.164Z,99910.94
2022-09-20T13:48:25.837Z,99906.69
2022-09-20T13:50:53.922Z,99897.56
2022-09-20T13:53:40.470Z,99900.81
2022-09-20T13:56:22.794Z,99902.34
2022-09-20T13:58:51.301Z,99905.28
2022-09-20T14:01:28.357Z,99904.00
2022-09-20T14:04:02.638Z,99906.16
2022-09-20T14:06:31.457Z,99913.91
2022-09-20T14:09:07.120Z,99910.13
2022-09-20T14:11:37.468Z,99909.63
2022-09-20T14:14:05.633Z,99903.94
2022-09-20T14:16:35.862Z,99906.22
2022-09-20T14:19:03.971Z,99908.87
2022-09-20T14:21:32.903Z,99910.41
2022-09-20T14:24:07.144Z,99911.41
2022-09-20T14:26:36.696Z,99907.16
2022-09-20T14:29:42.203Z,99907.16
2022-09-20T14:32:18.706Z,99910.00
2022-09-20T14:34:51.588Z,99902.25
2022-09-20T14:37:22.145Z,99906.41
2022-09-20T14:39:53.091Z,99912.16
2022-09-20T14:42:29.117Z,99907.47
2022-09-20T14:44:56.589Z,99909.50
2022-09-20T14:47:29.870Z,99906.66
2022-09-20T14:49:58.711Z,99907.91
2022-09-20T14:52:26.766Z,99912.69
2022-09-20T14:55:19.109Z,99919.69
2022-09-20T14:57:47.813Z,99920.94
2022-09-20T15:00:16.975Z,99920.31
2022-09-20T15:02:45.621Z,99922.88
2022-09-20T15:05:23.807Z,99924.91
2022-09-20T15:07:53.327Z,99923.47
2022-09-20T15:10:21.199Z,99930.75
2022-09-20T15:12:48.490Z,99929.19
2022-09-20T15:15:17.551Z,99935.34
2022-09-20T15:17:48.542Z,99937.31
2022-09-20T15:20:25.430Z,99939.00
2022-09-20T15:22:53.004Z,99944.25
2022-09-20T15:25:21.307Z,99948.88
2022-09-20T15:27:51.757Z,99956.81
2022-09-20T15:30:20.214Z,99974.16
2022-09-20T15:32:48.135Z,99969.47
2022-09-20T15:35:17.682Z,99979.72
2022-09-20T15:37:45.470Z,99983.59
2022-09-20T15:40:13.058Z,99979.66
2022-09-20T15:42:41.912Z,99976.41
2022-09-20T15:45:12.254Z,99981.84
2022-09-20T15:47:40.091Z,99986.03
2022-09-20T15:50:10.735Z,99988.78
2022-09-20T15:52:41.595Z,99996.69
2022-09-20T15:55:09.371Z,99991.56
2022-09-20T15:57:36.683Z,99999.28
2022-09-20T16:00:04.758Z,100004.62
2022-09-20T16:02:35.831Z,100005.22
2022-09-20T16:05:03.936Z,99993.94
2022-09-20T16:07:31.292Z,99997.19
2022-09-20T16:09:58.625Z,100003.16
2022-09-20T16:12:26.245Z,100001.31
2022-09-20T16:14:53.690Z,99996.34
2022-09-20T16:17:41.142Z,100000.19
2022-09-20T16:20:09.232Z,99996.47
2022-09-20T16:22:36.507Z,99990.50
2022-09-20T16:25:05.995Z,99995.84
2022-09-20T16:27:34.865Z,99987.91
2022-09-20T16:30:02.541Z,99978.37
2022-09-20T16:32:32.532Z,99979.31
2022-09-20T16:35:04.015Z,99986.28
2022-09-20T16:37:32.669Z,99989.22
2022-09-20T16:40:00.524Z,99991.84
2022-09-20T16:42:27.885Z,99995.53
2022-09-20T16:44:55.191Z,99998.00
2022-09-20T16:47:23.052Z,99998.03
2022-09-20T16:49:50.502Z,99998.66
2022-09-20T16:52:18.036Z,100000.50
2022-09-20T16:54:45.986Z,100003.91
2022-09-20T16:57:15.616Z,100003.97
2022-09-20T16:59:43.191Z,100002.19
2022-09-20T17:02:13.774Z,100008.34
2022-09-20T17:04:43.516Z,100012.72
2022-09-20T17:07:11.128Z,100002.97
2022-09-20T17:09:38.411Z,100005.81
2022-09-20T17:12:09.181Z,100006.72
2022-09-20T17:14:37.183Z,100007.66
2022-09-20T17:17:04.525Z,99998.91
2022-09-20T17:19:31.964Z,100001.59
2022-09-20T17:22:00.096Z,99999.91
2022-09-20T17:24:30.138Z,100000.09
2022-09-20T17:26:57.486Z,100006.19
2022-09-20T17:29:25.034Z,100009.41
2022-09-20T17:31:55.996Z,100013.81
2022-09-20T17:34:26.355Z,100016.53
2022-09-20T17:37:04.694Z,100016.69
2022-09-20T17:39:32.269Z,100021.13
2022-09-20T17:41:59.569Z,100029.78
2022-09-20T17:44:27.594Z,100026.34
2022-09-20T17:46:55.196Z,100030.81
2022-09-20T17:49:23.850Z,100035.91
2022-09-20T17:51:53.293Z,100034.16
2022-09-20T17:54:21.914Z,100039.53
2022-09-20T17:56:50.876Z,100035.16
2022-09-20T17:59:19.192Z,100043.94
2022-09-20T18:01:49.414Z,100040.41
2022-09-20T18:04:17.890Z,100047.34
2022-09-20T18:06:47.465Z,100053.63
2022-09-20T18:09:17.143Z,100059.66
2022-09-20T18:11:48.960Z,100058.00
2022-09-20T18:14:22.562Z,100058.34
2022-09-20T18:16:58.011Z,100063.34
2022-09-20T18:19:32.315Z,100067.75
2022-09-20T18:22:01.506Z,100074.87
2022-09-20T18:24:29.598Z,100070.44
2022-09-20T18:26:56.912Z,100077.63
2022-09-20T18:29:25.024Z,100080.44
2022-09-20T18:31:54.742Z,100074.31
2022-09-20T18:34:23.875Z,100076.94
2022-09-20T18:36:52.920Z,100083.09
2022-09-20T18:39:40.819Z,100075.16
2022-09-20T18:42:09.066Z,100084.06
2022-09-20T18:44:36.624Z,100080.63
2022-09-20T18:47:04.927Z,100086.72
2022-09-20T18:49:32.581Z,100098.13
2022-09-20T18:52:00.114Z,100088.56
2022-09-20T18:54:31.886Z,100089.44
2022-09-20T18:57:00.047Z,100103.66
2022-09-20T18:59:27.843Z,100100.38
2022-09-20T19:02:30.570Z,100105.63
2022-09-20T19:05:12.325Z,100103.62
2022-09-20T19:07:45.739Z,100096.78
2022-09-20T19:10:37.885Z,100103.00
2022-09-20T19:13:05.416Z,100097.78
2022-09-20T19:15:51.643Z,100092.53
2022-09-20T19:18:30.823Z,100086.38
2022-09-20T19:21:16.235Z,100099.50
2022-09-20T19:24:15.275Z,100105.63
2022-09-20T19:26:53.428Z,100097.87
2022-09-20T19:29:23.275Z,100091.81
2022-09-20T19:31:54.315Z,100093.50
2022-09-20T19:34:23.833Z,100095.28
2022-09-20T19:37:08.454Z,100093.56
2022-09-20T19:40:15.010Z,100093.63
2022-09-20T19:43:04.701Z,100100.50
2022-09-20T19:46:00.023Z,100102.50
2022-09-20T19:48:40.960Z,100098.13
2022-09-20T19:51:12.506Z,100094.75
2022-09-20T19:54:03.546Z,100104.44
2022-09-20T19:56:38.742Z,100116.56
2022-09-20T19:59:07.944Z,100112.28
2022-09-20T20:01:35.461Z,100118.34
2022-09-20T20:04:03.743Z,100125.25
2022-09-20T20:06:42.744Z,100114.81
2022-09-20T20:09:14.927Z,100125.19
2022-09-20T20:12:16.359Z,100137.41
2022-09-20T20:14:49.270Z,100137.50
2022-09-20T20:17:22.682Z,100132.34
2022-09-20T20:20:13.412Z,100134.06
2022-09-20T20:22:59.379Z,100143.56
2022-09-20T20:25:48.843Z,100140.16
2022-09-20T20:28:16.382Z,100142.72
2022-09-20T20:30:43.948Z,100153.25
2022-09-20T20:33:16.205Z,100148.06
2022-09-20T20:35:43.774Z,100149.75
2022-09-20T20:38:12.488Z,100155.03
2022-09-20T20:40:40.665Z,100152.34
2022-09-20T20:43:09.269Z,100156.63
2022-09-20T20:45:38.731Z,100159.25
2022-09-20T20:48:06.416Z,100157.50
2022-09-20T20:50:34.111Z,100158.31
2022-09-20T20:53:01.394Z,100156.63
2022-09-20T20:55:28.672Z,100165.31
2022-09-20T20:57:58.128Z,100167.13
2022-09-20T21:00:26.931Z,100161.88
2022-09-20T21:03:01.507Z,100166.31
2022-09-20T21:05:29.541Z,100169.78
2022-09-20T21:07:57.948Z,100170.69
2022-09-20T21:10:25.531Z,100168.94
2022-09-20T21:12:56.274Z,100166.25
2022-09-20T21:15:23.572Z,100174.09
2022-09-20T21:17:52.306Z,100172.34
2022-09-20T21:20:21.302Z,100170.56
2022-09-20T21:22:48.840Z,100175.78
2022-09-20T21:25:16.449Z,100183.69
2022-09-20T21:27:44.031Z,100180.16
2022-09-20T21:30:11.832Z,100189.69
2022-09-20T21:32:39.124Z,100181.91
2022-09-20T21:35:06.973Z,100183.59
2022-09-20T21:37:34.295Z,100188.00
2022-09-20T21:40:01.951Z,100179.47
2022-09-20T21:42:29.600Z,100179.37
2022-09-20T21:44:56.887Z,100178.47
2022-09-20T21:47:24.176Z,100180.34
2022-09-20T21:49:51.743Z,100175.94
2022-09-20T21:52:19.009Z,100175.19
2022-09-20T21:54:46.370Z,100171.63
2022-09-20T21:57:13.936Z,100182.19
2022-09-20T21:59:41.563Z,100184.72
2022-09-20T22:02:09.067Z,100176.00
2022-09-20T22:04:36.730Z,100184.62
2022-09-20T22:07:10.284Z,100180.28
2022-09-20T22:09:37.933Z,100184.66
2022-09-20T22:12:05.291Z,100185.59
2022-09-20T22:14:32.630Z,100182.03
2022-09-20T22:17:00.200Z,100176.00
2022-09-20T22:19:27.500Z,100190.03
2022-09-20T22:21:54.960Z,100184.78
2022-09-20T22:24:22.524Z,100183.00
2022-09-20T22:26:50.847Z,100186.53
2022-09-20T22:29:18.368Z,100189.13
2022-09-20T22:31:47.366Z,100188.28
2022-09-20T22:34:16.750Z,100196.19
2022-09-20T22:36:45.021Z,100190.94
2022-09-20T22:39:13.065Z,100187.53
2022-09-20T22:41:41.315Z,100191.91
2022-09-20T22:44:08.904Z,100190.16
2022-09-20T22:46:36.890Z,100190.06
2022-09-20T22:49:07.783Z,100186.59
2022-09-20T22:51:35.586Z,100178.78
2022-09-20T22:54:08.605Z,100185.69
2022-09-20T22:56:36.298Z,100184.00
2022-09-20T22:59:12.095Z,100181.41
2022-09-20T23:01:42.346Z,100182.28
2022-09-20T23:04:17.861Z,100183.97
2022-09-20T23:06:54.541Z,100183.13
2022-09-20T23:09:24.749Z,100185.69
2022-09-20T23:11:52.371Z,100177.00
2022-09-20T23:14:21.436Z,100181.38
2022-09-20T23:16:49.885Z,100183.13
2022-09-20T23:19:17.431Z,100185.75
2022-09-20T23:21:45.188Z,100179.66
2022-09-20T23:24:14.520Z,100187.53
2022-09-20T23:26:42.909Z,100192.78
2022-09-20T23:29:12.467Z,100199.69
2022-09-20T23:31:41.651Z,100195.38
2022-09-20T23:34:09.971Z,100197.16
2022-09-20T23:36:39.447Z,100195.47
2022-09-20T23:39:08.208Z,100205.84
2022-09-20T23:41:36.659Z,100201.53
2022-09-20T23:44:06.192Z,100205.06
2022-09-20T23:46:34.026Z,100195.44
2022-09-20T23:49:02.378Z,100198.09
2022-09-20T23:51:30.695Z,100189.37
2022-09-20T23:53:58.336Z,100190.25
2022-09-20T23:56:26.747Z,100202.41
2022-09-20T23:58:56.475Z,100202.41
